createdAt,value
2018-12-18T00:00:53.169Z,23.75
2018-12-18T00:03:20.918Z,21.12
2018-12-18T00:05:48.906Z,22.52
2018-12-18T00:08:17.390Z,22.80
2018-12-18T00:11:03.949Z,22.23
2018-12-18T00:13:32.357Z,24.37
2018-12-18T00:16:00.443Z,21.95
2018-12-18T00:18:28.403Z,22.48
2018-12-18T00:20:56.890Z,24.17
2018-12-18T00:23:24.633Z,22.67
2018-12-18T00:25:52.656Z,24.00
2018-12-18T00:28:20.629Z,30.05
2018-12-18T00:30:48.624Z,31.02
2018-12-18T00:33:16.681Z,30.95
2018-12-18T00:35:45.224Z,27.58
2018-12-18T00:38:13.222Z,29.52
2018-12-18T00:40:41.285Z,23.95
2018-12-18T00:43:09.623Z,26.37
2018-12-18T00:45:37.572Z,23.92
2018-12-18T00:48:05.289Z,29.55
2018-12-18T00:50:33.315Z,25.02
2018-12-18T00:53:01.422Z,25.70
2018-12-18T00:55:29.435Z,25.02
2018-12-18T00:57:57.845Z,25.85
2018-12-18T01:00:25.807Z,26.00
2018-12-18T01:02:53.809Z,24.45
2018-12-18T01:05:22.430Z,21.30
2018-12-18T01:07:53.278Z,25.45
2018-12-18T01:10:18.422Z,25.17
2018-12-18T01:12:46.431Z,19.62
2018-12-18T01:15:14.445Z,26.90
2018-12-18T01:17:42.775Z,22.45
2018-12-18T01:20:11.295Z,25.73
2018-12-18T01:22:39.392Z,20.48
2018-12-18T01:25:07.959Z,22.95
2018-12-18T01:27:35.724Z,23.35
2018-12-18T01:30:04.188Z,23.48
2018-12-18T01:32:32.176Z,21.58
2018-12-18T01:35:02.643Z,22.90
2018-12-18T01:37:30.372Z,32.45
2018-12-18T01:39:58.088Z,22.95
2018-12-18T01:42:25.898Z,24.15
2018-12-18T01:44:53.906Z,24.87
2018-12-18T01:47:21.626Z,21.40
2018-12-18T01:49:49.639Z,21.92
2018-12-18T01:52:17.082Z,25.62
2018-12-18T01:54:45.055Z,23.52
2018-12-18T01:57:12.774Z,20.88
2018-12-18T01:59:40.773Z,22.10
2018-12-18T02:02:08.779Z,22.35
2018-12-18T02:04:36.770Z,22.10
2018-12-18T02:07:04.744Z,19.40
2018-12-18T02:09:33.048Z,22.95
2018-12-18T02:12:01.079Z,23.35
2018-12-18T02:14:29.017Z,26.80
2018-12-18T02:16:56.996Z,24.40
2018-12-18T02:19:25.132Z,21.17
2018-12-18T02:21:53.141Z,19.33
2018-12-18T02:24:21.670Z,20.98
2018-12-18T02:26:49.690Z,17.95
2018-12-18T02:29:17.709Z,17.08
2018-12-18T02:31:45.178Z,18.58
2018-12-18T02:34:13.926Z,20.70
2018-12-18T02:36:40.649Z,20.55
2018-12-18T02:39:08.437Z,19.08
2018-12-18T02:41:36.464Z,18.95
2018-12-18T02:44:04.192Z,18.08
2018-12-18T02:46:32.217Z,18.25
2018-12-18T02:49:00.281Z,16.05
2018-12-18T02:51:27.976Z,15.00
2018-12-18T02:53:55.996Z,15.73
2018-12-18T02:56:24.038Z,15.65
2018-12-18T02:58:52.030Z,16.98
2018-12-18T03:01:20.063Z,12.63
2018-12-18T03:03:48.112Z,13.52
2018-12-18T03:06:16.397Z,13.85
2018-12-18T03:08:44.368Z,13.38
2018-12-18T03:11:20.815Z,9.40
2018-12-18T03:13:49.340Z,13.05
2018-12-18T03:16:17.327Z,12.82
2018-12-18T03:18:44.907Z,12.25
2018-12-18T03:21:12.993Z,14.32
2018-12-18T03:23:40.791Z,12.25
2018-12-18T03:26:08.849Z,12.13
2018-12-18T03:28:36.856Z,15.63
2018-12-18T03:31:05.415Z,16.40
2018-12-18T03:33:33.842Z,13.88
2018-12-18T03:36:02.469Z,15.13
2018-12-18T03:38:30.194Z,15.45
2018-12-18T03:40:58.255Z,11.27
2018-12-18T03:43:26.029Z,11.38
2018-12-18T03:45:53.753Z,11.60
2018-12-18T03:48:21.810Z,10.75
2018-12-18T03:50:49.750Z,10.65
2018-12-18T03:53:17.463Z,9.73
2018-12-18T03:55:45.209Z,10.48
2018-12-18T03:58:13.277Z,10.40
2018-12-18T04:00:41.331Z,11.25
2018-12-18T04:03:09.484Z,11.30
2018-12-18T04:05:37.483Z,10.68
2018-12-18T04:08:05.469Z,11.18
2018-12-18T04:10:33.551Z,10.60
2018-12-18T04:13:01.626Z,11.75
2018-12-18T04:15:29.620Z,10.38
2018-12-18T04:17:57.979Z,8.75
2018-12-18T04:20:25.768Z,9.43
2018-12-18T04:22:54.967Z,9.27
2018-12-18T04:25:23.039Z,10.05
2018-12-18T04:27:50.463Z,8.75
2018-12-18T04:30:18.451Z,8.75
2018-12-18T04:32:46.643Z,8.90
2018-12-18T04:35:14.363Z,8.27
2018-12-18T04:37:42.314Z,9.82
2018-12-18T04:40:10.318Z,7.80
2018-12-18T04:42:38.033Z,9.68
2018-12-18T04:45:06.045Z,9.85
2018-12-18T04:47:34.084Z,9.90
2018-12-18T04:50:02.096Z,12.02
2018-12-18T04:52:30.105Z,11.43
2018-12-18T04:54:57.680Z,10.05
2018-12-18T04:57:25.362Z,9.20
2018-12-18T04:59:53.078Z,9.25
2018-12-18T05:02:21.132Z,7.85
2018-12-18T05:04:50.528Z,9.43
2018-12-18T05:07:17.053Z,9.60
2018-12-18T05:09:44.791Z,9.93
2018-12-18T05:12:12.506Z,8.23
2018-12-18T05:14:40.262Z,10.35
2018-12-18T05:17:08.630Z,9.57
2018-12-18T05:19:36.659Z,9.15
2018-12-18T05:22:04.380Z,9.45
2018-12-18T05:24:32.742Z,10.52
2018-12-18T05:27:00.738Z,10.27
2018-12-18T05:29:28.725Z,10.23
2018-12-18T05:31:56.910Z,10.45
2018-12-18T05:34:24.917Z,10.60
2018-12-18T05:36:52.887Z,9.90
2018-12-18T05:39:21.767Z,9.85
2018-12-18T05:41:50.866Z,8.80
2018-12-18T05:44:19.763Z,9.93
2018-12-18T05:46:50.049Z,11.45
2018-12-18T05:49:17.740Z,9.68
2018-12-18T05:51:45.498Z,9.43
2018-12-18T05:54:13.790Z,9.65
2018-12-18T05:56:41.784Z,9.68
2018-12-18T05:59:09.803Z,8.48
2018-12-18T06:01:37.825Z,9.80
2018-12-18T06:04:05.782Z,9.55
2018-12-18T06:06:33.829Z,9.85
2018-12-18T06:09:02.320Z,7.87
2018-12-18T06:11:30.451Z,8.32
2018-12-18T06:13:58.451Z,8.73
2018-12-18T06:16:26.213Z,8.20
2018-12-18T06:18:54.184Z,8.30
2018-12-18T06:21:21.633Z,10.13
2018-12-18T06:23:49.909Z,9.90
2018-12-18T06:26:18.288Z,7.72
2018-12-18T06:28:46.276Z,8.60
2018-12-18T06:31:14.238Z,9.80
2018-12-18T06:33:42.237Z,8.95
2018-12-18T06:36:10.802Z,7.15
2018-12-18T06:38:38.782Z,7.80
2018-12-18T06:41:06.611Z,9.13
2018-12-18T06:43:35.181Z,9.25
2018-12-18T06:46:03.485Z,8.82
2018-12-18T06:48:30.931Z,7.55
2018-12-18T06:50:58.924Z,8.75
2018-12-18T06:53:26.973Z,7.78
2018-12-18T06:55:54.981Z,8.25
2018-12-18T06:58:23.607Z,8.68
2018-12-18T07:00:51.613Z,8.15
2018-12-18T07:03:19.681Z,8.13
2018-12-18T07:05:47.645Z,9.07
2018-12-18T07:08:15.705Z,8.88
2018-12-18T07:10:43.523Z,8.07
2018-12-18T07:13:11.480Z,8.40
2018-12-18T07:15:39.549Z,7.93
2018-12-18T07:18:07.555Z,8.52
2018-12-18T07:20:35.635Z,7.95
2018-12-18T07:23:03.677Z,7.55
2018-12-18T07:25:31.363Z,7.35
2018-12-18T07:27:59.449Z,7.80
2018-12-18T07:30:27.962Z,7.62
2018-12-18T07:32:55.978Z,9.48
2018-12-18T07:35:23.978Z,8.55
2018-12-18T07:37:51.992Z,7.82
2018-12-18T07:40:20.525Z,7.72
2018-12-18T07:42:48.630Z,5.90
2018-12-18T07:45:16.771Z,8.90
2018-12-18T07:47:44.767Z,8.60
2018-12-18T07:50:12.737Z,7.25
2018-12-18T07:52:40.751Z,8.20
2018-12-18T07:55:08.751Z,9.20
2018-12-18T07:57:36.742Z,6.35
2018-12-18T08:00:04.867Z,9.27
2018-12-18T08:02:32.834Z,9.52
2018-12-18T08:05:00.836Z,5.90
2018-12-18T08:07:28.878Z,10.75
2018-12-18T08:09:56.886Z,7.12
2018-12-18T08:12:27.601Z,7.68
2018-12-18T08:14:55.728Z,9.48
2018-12-18T08:17:23.692Z,7.78
2018-12-18T08:19:51.715Z,7.45
2018-12-18T08:22:19.773Z,7.55
2018-12-18T08:24:47.490Z,7.68
2018-12-18T08:27:15.454Z,8.32
2018-12-18T08:29:43.647Z,7.75
2018-12-18T08:32:11.619Z,8.77
2018-12-18T08:34:40.230Z,8.25
2018-12-18T08:37:08.232Z,8.13
2018-12-18T08:39:36.476Z,7.82
2018-12-18T08:42:04.487Z,8.32
2018-12-18T08:44:32.538Z,7.55
2018-12-18T08:47:01.032Z,10.00
2018-12-18T08:49:28.769Z,7.60
2018-12-18T08:51:56.819Z,6.70
2018-12-18T08:54:24.823Z,8.07
2018-12-18T08:56:52.827Z,6.97
2018-12-18T08:59:21.805Z,8.07
2018-12-18T09:01:49.785Z,6.65
2018-12-18T09:04:17.790Z,5.70
2018-12-18T09:06:45.547Z,4.82
2018-12-18T09:09:13.266Z,5.47
2018-12-18T09:11:41.243Z,6.43
2018-12-18T09:14:09.209Z,6.87
2018-12-18T09:16:54.790Z,5.70
2018-12-18T09:19:23.156Z,5.37
2018-12-18T09:21:51.150Z,5.20
2018-12-18T09:24:19.139Z,5.53
2018-12-18T09:26:47.167Z,3.70
2018-12-18T09:29:15.711Z,3.62
2018-12-18T09:31:43.830Z,4.12
2018-12-18T09:34:12.477Z,4.55
2018-12-18T09:36:40.252Z,4.30
2018-12-18T09:39:40.301Z,4.87
2018-12-18T09:42:25.872Z,4.75
2018-12-18T09:44:53.882Z,5.65
2018-12-18T09:47:22.556Z,2.97
2018-12-18T09:49:51.050Z,4.85
2018-12-18T09:52:19.274Z,4.35
2018-12-18T09:54:47.357Z,4.68
2018-12-18T09:57:46.765Z,4.85
2018-12-18T10:00:14.742Z,4.30
2018-12-18T10:02:42.718Z,4.57
2018-12-18T10:05:11.055Z,5.60
2018-12-18T10:07:38.758Z,4.00
2018-12-18T10:10:07.314Z,4.68
2018-12-18T10:12:54.656Z,5.32
2018-12-18T10:15:23.150Z,5.57
2018-12-18T10:17:50.611Z,4.72
2018-12-18T10:20:18.646Z,4.53
2018-12-18T10:22:47.223Z,5.37
2018-12-18T10:25:14.947Z,4.70
2018-12-18T10:27:42.927Z,3.60
2018-12-18T10:30:11.215Z,4.78
2018-12-18T10:32:39.715Z,5.30
2018-12-18T10:35:08.352Z,4.53
2018-12-18T10:37:36.033Z,5.05
2018-12-18T10:40:03.977Z,3.83
2018-12-18T10:42:33.120Z,4.25
2018-12-18T10:45:00.822Z,3.17
2018-12-18T10:47:28.579Z,3.45
2018-12-18T10:49:56.596Z,4.07
2018-12-18T10:52:24.559Z,5.10
2018-12-18T10:54:52.565Z,4.90
2018-12-18T10:57:20.725Z,4.60
2018-12-18T10:59:48.426Z,3.95
2018-12-18T11:02:16.209Z,4.18
2018-12-18T11:04:44.482Z,4.55
2018-12-18T11:07:12.252Z,3.65
2018-12-18T11:09:40.227Z,3.55
2018-12-18T11:12:08.261Z,3.72
2018-12-18T11:14:36.300Z,4.43
2018-12-18T11:17:04.303Z,4.60
2018-12-18T11:19:32.315Z,4.00
2018-12-18T11:22:00.330Z,3.22
2018-12-18T11:24:28.593Z,4.68
2018-12-18T11:26:56.310Z,3.97
2018-12-18T11:29:24.296Z,3.05
2018-12-18T11:31:52.309Z,3.90
2018-12-18T11:34:20.769Z,4.10
2018-12-18T11:36:48.772Z,3.12
2018-12-18T11:39:16.474Z,3.35
2018-12-18T11:41:44.472Z,3.62
2018-12-18T11:44:12.205Z,3.85
2018-12-18T11:46:39.930Z,4.18
2018-12-18T11:49:07.941Z,4.55
2018-12-18T11:51:35.919Z,4.07
2018-12-18T11:54:03.668Z,2.78
2018-12-18T11:56:32.307Z,2.80
2018-12-18T11:59:00.334Z,4.78
2018-12-18T12:01:28.301Z,3.83
2018-12-18T12:03:56.366Z,3.50
2018-12-18T12:06:24.354Z,4.65
2018-12-18T12:08:52.359Z,2.95
2018-12-18T12:11:21.038Z,3.53
2018-12-18T12:13:48.753Z,3.90
2018-12-18T12:16:16.741Z,3.78
2018-12-18T12:18:44.755Z,3.72
2018-12-18T12:21:12.719Z,3.72
2018-12-18T12:23:40.746Z,2.95
2018-12-18T12:26:26.737Z,3.75
2018-12-18T12:28:54.706Z,3.78
2018-12-18T12:31:22.640Z,3.80
2018-12-18T12:33:50.647Z,3.22
2018-12-18T12:36:18.987Z,3.97
2018-12-18T12:38:46.942Z,3.70
2018-12-18T12:41:14.397Z,3.50
2018-12-18T12:43:42.425Z,4.40
2018-12-18T12:46:10.402Z,3.90
2018-12-18T12:48:57.052Z,4.00
2018-12-18T12:51:25.009Z,4.00
2018-12-18T12:53:52.724Z,3.80
2018-12-18T12:56:21.448Z,3.00
2018-12-18T12:58:49.424Z,3.50
2018-12-18T13:01:17.499Z,3.70
2018-12-18T13:03:45.766Z,3.95
2018-12-18T13:06:13.846Z,3.67
2018-12-18T13:08:41.814Z,4.15
2018-12-18T13:11:09.869Z,5.00
2018-12-18T13:13:37.870Z,2.80
2018-12-18T13:16:05.837Z,3.70
2018-12-18T13:18:33.871Z,3.60
2018-12-18T13:21:01.821Z,3.75
2018-12-18T13:23:29.823Z,4.12
2018-12-18T13:25:57.845Z,3.87
2018-12-18T13:28:25.306Z,4.78
2018-12-18T13:30:53.021Z,4.10
2018-12-18T13:33:21.421Z,3.30
2018-12-18T13:35:49.400Z,2.85
2018-12-18T13:38:17.537Z,2.83
2018-12-18T13:40:45.630Z,3.17
2018-12-18T13:43:13.308Z,3.67
2018-12-18T13:45:41.391Z,2.62
2018-12-18T13:48:09.317Z,2.08
2018-12-18T13:50:37.299Z,4.07
2018-12-18T13:53:05.358Z,5.47
2018-12-18T13:55:36.746Z,3.30
2018-12-18T13:58:01.876Z,3.72
2018-12-18T14:00:29.859Z,4.37
2018-12-18T14:02:57.863Z,3.17
2018-12-18T14:05:25.597Z,3.58
2018-12-18T14:07:53.548Z,3.62
2018-12-18T14:10:21.579Z,3.92
2018-12-18T14:12:58.416Z,3.60
2018-12-18T14:15:26.940Z,5.28
2018-12-18T14:17:55.470Z,4.40
2018-12-18T14:20:23.434Z,4.78
2018-12-18T14:22:52.585Z,4.45
2018-12-18T14:25:20.088Z,3.78
2018-12-18T14:27:48.096Z,3.92
2018-12-18T14:30:16.686Z,4.43
2018-12-18T14:32:44.691Z,4.97
2018-12-18T14:35:12.423Z,3.70
2018-12-18T14:37:47.930Z,4.25
2018-12-18T14:40:16.243Z,4.93
2018-12-18T14:42:43.945Z,3.97
2018-12-18T14:45:11.957Z,4.68
2018-12-18T14:47:39.420Z,4.20
2018-12-18T14:50:07.680Z,4.68
2018-12-18T14:52:35.694Z,3.40
2018-12-18T14:55:03.785Z,4.28
2018-12-18T14:57:31.531Z,4.55
2018-12-18T14:59:59.516Z,4.72
2018-12-18T15:02:27.480Z,3.90
2018-12-18T15:04:55.520Z,3.83
2018-12-18T15:07:23.248Z,2.97
2018-12-18T15:09:50.961Z,3.75
2018-12-18T15:12:19.171Z,3.60
2018-12-18T15:14:47.123Z,3.40
2018-12-18T15:17:15.067Z,3.95
2018-12-18T15:19:42.785Z,2.58
2018-12-18T15:22:11.103Z,3.70
2018-12-18T15:24:38.806Z,4.05
2018-12-18T15:27:07.028Z,3.15
2018-12-18T15:29:35.830Z,2.53
2018-12-18T15:32:02.749Z,3.95
2018-12-18T15:34:31.302Z,3.78
2018-12-18T15:36:59.307Z,3.50
2018-12-18T15:39:27.330Z,2.75
2018-12-18T15:41:55.729Z,3.40
2018-12-18T15:44:23.915Z,4.40
2018-12-18T15:46:52.411Z,4.10
2018-12-18T15:49:20.965Z,2.67
2018-12-18T15:51:48.966Z,2.75
2018-12-18T15:54:17.445Z,2.92
2018-12-18T15:56:45.141Z,3.53
2018-12-18T15:59:13.158Z,3.05
2018-12-18T16:01:41.683Z,3.60
2018-12-18T16:04:09.435Z,2.85
2018-12-18T16:06:37.894Z,3.72
2018-12-18T16:09:07.476Z,2.58
2018-12-18T16:11:35.908Z,3.75
2018-12-18T16:14:04.023Z,2.83
2018-12-18T16:16:32.051Z,2.45
2018-12-18T16:19:00.106Z,2.00
2018-12-18T16:21:28.362Z,2.17
2018-12-18T16:23:56.480Z,3.50
2018-12-18T16:26:24.439Z,2.60
2018-12-18T16:28:52.438Z,2.67
2018-12-18T16:31:20.388Z,2.10
2018-12-18T16:33:48.378Z,2.60
2018-12-18T16:36:16.117Z,3.12
2018-12-18T16:38:44.122Z,2.17
2018-12-18T16:41:12.142Z,2.62
2018-12-18T16:43:40.000Z,2.67
2018-12-18T16:46:07.964Z,2.42
2018-12-18T16:48:35.689Z,2.78
2018-12-18T16:51:04.025Z,2.70
2018-12-18T16:53:32.046Z,3.22
2018-12-18T16:56:00.536Z,2.37
2018-12-18T16:58:28.954Z,3.25
2018-12-18T17:00:57.004Z,2.62
2018-12-18T17:03:24.783Z,3.50
2018-12-18T17:05:52.900Z,2.42
2018-12-18T17:08:20.867Z,3.35
2018-12-18T17:10:48.870Z,2.97
2018-12-18T17:13:16.319Z,2.80
2018-12-18T17:15:44.308Z,4.15
2018-12-18T17:18:12.006Z,3.70
2018-12-18T17:20:40.180Z,3.33
2018-12-18T17:23:08.119Z,2.70
2018-12-18T17:25:35.840Z,2.62
2018-12-18T17:28:04.472Z,4.22
2018-12-18T17:30:31.927Z,3.50
2018-12-18T17:32:59.868Z,4.07
2018-12-18T17:35:27.587Z,4.53
2018-12-18T17:37:55.538Z,3.67
2018-12-18T17:40:23.495Z,4.00
2018-12-18T17:42:51.275Z,3.87
2018-12-18T17:45:19.437Z,4.85
2018-12-18T17:47:47.429Z,4.18
2018-12-18T17:50:15.686Z,3.47
2018-12-18T17:52:44.037Z,3.95
2018-12-18T17:55:12.072Z,4.25
2018-12-18T17:57:40.096Z,3.75
2018-12-18T18:00:08.155Z,4.32
2018-12-18T18:02:36.126Z,3.55
2018-12-18T18:05:04.864Z,2.97
2018-12-18T18:07:32.874Z,3.28
2018-12-18T18:10:00.867Z,3.58
2018-12-18T18:12:30.083Z,2.45
2018-12-18T18:14:57.259Z,4.03
2018-12-18T18:17:25.275Z,3.45
2018-12-18T18:19:53.302Z,2.20
2018-12-18T18:22:21.799Z,3.25
2018-12-18T18:24:49.507Z,2.85
2018-12-18T18:27:17.561Z,3.17
2018-12-18T18:29:45.267Z,3.17
2018-12-18T18:32:13.300Z,3.45
2018-12-18T18:34:41.279Z,2.83
2018-12-18T18:37:09.404Z,2.67
2018-12-18T18:39:37.172Z,4.12
2018-12-18T18:42:05.211Z,3.17
2018-12-18T18:44:33.202Z,3.50
2018-12-18T18:47:01.495Z,3.08
2018-12-18T18:49:29.537Z,2.60
2018-12-18T18:51:57.526Z,4.12
2018-12-18T18:54:25.536Z,3.80
2018-12-18T18:56:53.934Z,2.72
2018-12-18T18:59:22.267Z,2.78
2018-12-18T19:01:50.274Z,3.17
2018-12-18T19:04:18.335Z,3.33
2018-12-18T19:06:46.145Z,3.12
2018-12-18T19:09:14.103Z,3.92
2018-12-18T19:11:41.904Z,2.10
2018-12-18T19:14:09.939Z,2.35
2018-12-18T19:16:38.426Z,2.45
2018-12-18T19:19:06.428Z,3.67
2018-12-18T19:21:34.410Z,3.58
2018-12-18T19:24:02.097Z,2.65
2018-12-18T19:26:30.135Z,2.92
2018-12-18T19:28:57.853Z,3.33
2018-12-18T19:31:25.641Z,3.62
2018-12-18T19:33:53.671Z,3.35
2018-12-18T19:36:21.552Z,3.28
2018-12-18T19:38:49.693Z,2.17
2018-12-18T19:41:17.876Z,3.70
2018-12-18T19:43:45.965Z,3.60
2018-12-18T19:46:13.266Z,4.10
2018-12-18T19:48:41.120Z,2.28
2018-12-18T19:51:09.102Z,2.90
2018-12-18T19:53:37.102Z,3.08
2018-12-18T19:56:05.094Z,3.00
2018-12-18T19:58:32.813Z,3.03
2018-12-18T20:01:00.487Z,3.80
2018-12-18T20:03:28.474Z,3.80
2018-12-18T20:05:56.444Z,2.30
2018-12-18T20:08:24.203Z,2.60
2018-12-18T20:10:52.214Z,3.35
2018-12-18T20:13:20.268Z,2.50
2018-12-18T20:15:48.309Z,2.50
2018-12-18T20:18:16.288Z,2.53
2018-12-18T20:20:44.314Z,2.87
2018-12-18T20:23:12.258Z,5.03
2018-12-18T20:25:40.278Z,4.45
2018-12-18T20:28:08.261Z,3.05
2018-12-18T20:30:36.234Z,3.78
2018-12-18T20:33:05.524Z,2.60
2018-12-18T20:35:34.045Z,4.30
2018-12-18T20:38:01.875Z,4.15
2018-12-18T20:40:30.167Z,4.07
2018-12-18T20:42:58.157Z,2.78
2018-12-18T20:45:26.128Z,3.83
2018-12-18T20:47:54.151Z,3.80
2018-12-18T20:50:22.831Z,3.53
2018-12-18T20:52:50.824Z,3.28
2018-12-18T20:55:18.876Z,4.28
2018-12-18T20:57:47.132Z,2.90
2018-12-18T21:00:15.122Z,4.68
2018-12-18T21:02:43.115Z,3.85
2018-12-18T21:05:11.072Z,3.35
2018-12-18T21:07:39.077Z,4.47
2018-12-18T21:10:07.815Z,3.60
2018-12-18T21:12:35.776Z,3.30
2018-12-18T21:15:04.273Z,5.75
2018-12-18T21:17:32.295Z,3.85
2018-12-18T21:20:00.368Z,4.43
2018-12-18T21:22:28.345Z,5.65
2018-12-18T21:24:56.347Z,6.03
2018-12-18T21:27:24.080Z,4.47
2018-12-18T21:29:51.817Z,6.12
2018-12-18T21:32:20.193Z,5.60
2018-12-18T21:34:48.214Z,7.22
2018-12-18T21:37:16.219Z,4.12
2018-12-18T21:39:44.787Z,4.85
2018-12-18T21:42:13.439Z,4.97
2018-12-18T21:44:41.390Z,5.35
2018-12-18T21:47:09.947Z,5.05
2018-12-18T21:49:37.923Z,4.12
2018-12-18T21:52:07.169Z,4.45
2018-12-18T21:54:35.231Z,5.62
2018-12-18T21:57:03.202Z,5.97
2018-12-18T21:59:31.191Z,4.40
2018-12-18T22:01:59.388Z,7.15
2018-12-18T22:04:26.893Z,6.30
2018-12-18T22:06:55.528Z,5.55
2018-12-18T22:09:23.552Z,5.62
2018-12-18T22:11:51.592Z,5.53
2018-12-18T22:14:20.146Z,5.40
2018-12-18T22:16:48.528Z,5.70
2018-12-18T22:19:16.509Z,4.20
2018-12-18T22:21:44.256Z,6.37
2018-12-18T22:24:12.487Z,4.40
2018-12-18T22:26:40.463Z,7.03
2018-12-18T22:29:09.087Z,6.55
2018-12-18T22:31:37.154Z,7.22
2018-12-18T22:34:05.125Z,5.15
2018-12-18T22:36:33.080Z,5.43
2018-12-18T22:39:02.154Z,6.37
2018-12-18T22:41:30.098Z,3.55
2018-12-18T22:43:57.516Z,5.43
2018-12-18T22:46:27.426Z,5.80
2018-12-18T22:48:55.410Z,6.43
2018-12-18T22:51:23.939Z,5.28
2018-12-18T22:53:52.545Z,5.78
2018-12-18T22:56:20.497Z,4.50
2018-12-18T22:58:49.071Z,6.03
2018-12-18T23:01:36.237Z,4.97
2018-12-18T23:04:04.209Z,4.32
2018-12-18T23:06:31.911Z,4.07
2018-12-18T23:08:59.640Z,5.25
2018-12-18T23:11:27.653Z,4.68
2018-12-18T23:13:56.162Z,5.35
2018-12-18T23:16:24.141Z,5.10
2018-12-18T23:18:52.760Z,3.87
2018-12-18T23:21:21.269Z,3.92
2018-12-18T23:23:49.012Z,3.87
2018-12-18T23:26:17.028Z,3.90
2018-12-18T23:28:44.460Z,5.75
2018-12-18T23:31:13.003Z,4.90
2018-12-18T23:33:40.985Z,5.72
2018-12-18T23:36:09.037Z,4.60
2018-12-18T23:38:37.099Z,3.12
2018-12-18T23:41:05.058Z,5.03
2018-12-18T23:43:33.749Z,3.92
2018-12-18T23:46:01.488Z,4.57
2018-12-18T23:48:29.203Z,3.95
2018-12-18T23:50:56.908Z,3.08
2018-12-18T23:53:25.213Z,3.08
2018-12-18T23:55:53.295Z,3.00
2018-12-18T23:58:21.306Z,5.07
